sensor_id;sensor_type;location;lat;lon;timestamp;temperature;humidity
3756;DHT22;1893;52.526;13.360;2022-09-09T00:00:16;15.20;99.90
3756;DHT22;1893;52.526;13.360;2022-09-09T00:03:17;15.10;99.90
3756;DHT22;1893;52.526;13.360;2022-09-09T00:06:08;15.10;99.90
3756;DHT22;1893;52.526;13.360;2022-09-09T00:08:49;15.10;99.90
3756;DHT22;1893;52.526;13.360;2022-09-09T00:11:26;15.10;99.90
3756;DHT22;1893;52.526;13.360;2022-09-09T00:13:55;15.00;99.90
3756;DHT22;1893;52.526;13.360;2022-09-09T00:16:24;15.00;99.90
3756;DHT22;1893;52.526;13.360;2022-09-09T00:21:36;15.00;99.90
3756;DHT22;1893;52.526;13.360;2022-09-09T00:24:11;15.00;99.90
3756;DHT22;1893;52.526;13.360;2022-09-09T00:26:44;15.00;99.90
3756;DHT22;1893;52.526;13.360;2022-09-09T00:31:39;15.00;99.90
3756;DHT22;1893;52.526;13.360;2022-09-09T00:34:29;15.00;99.90
3756;DHT22;1893;52.526;13.360;2022-09-09T00:36:56;15.00;99.90
3756;DHT22;1893;52.526;13.360;2022-09-09T00:39:36;14.90;99.90
3756;DHT22;1893;52.526;13.360;2022-09-09T00:45:19;14.90;99.90
3756;DHT22;1893;52.526;13.360;2022-09-09T00:47:53;14.90;99.90
3756;DHT22;1893;52.526;13.360;2022-09-09T00:50:45;14.90;99.90
3756;DHT22;1893;52.526;13.360;2022-09-09T00:56:15;14.90;99.90
3756;DHT22;1893;52.526;13.360;2022-09-09T00:59:00;14.90;99.90
3756;DHT22;1893;52.526;13.360;2022-09-09T01:01:30;14.90;99.90
3756;DHT22;1893;52.526;13.360;2022-09-09T01:03:56;14.80;99.90
3756;DHT22;1893;52.526;13.360;2022-09-09T01:20:03;14.70;99.90
3756;DHT22;1893;52.526;13.360;2022-09-09T01:22:53;14.70;99.90
3756;DHT22;1893;52.526;13.360;2022-09-09T01:28:16;14.60;99.90
3756;DHT22;1893;52.526;13.360;2022-09-09T01:30:43;14.60;99.90
3756;DHT22;1893;52.526;13.360;2022-09-09T01:33:13;14.60;99.90
3756;DHT22;1893;52.526;13.360;2022-09-09T01:35:50;14.60;99.90
3756;DHT22;1893;52.526;13.360;2022-09-09T01:38:20;14.50;99.90
3756;DHT22;1893;52.526;13.360;2022-09-09T01:40:46;14.50;99.90
3756;DHT22;1893;52.526;13.360;2022-09-09T01:43:12;14.50;99.90
3756;DHT22;1893;52.526;13.360;2022-09-09T01:45:39;14.50;99.90
3756;DHT22;1893;52.526;13.360;2022-09-09T01:48:06;14.40;99.90
3756;DHT22;1893;52.526;13.360;2022-09-09T01:50:32;14.40;99.90
3756;DHT22;1893;52.526;13.360;2022-09-09T01:52:59;14.40;99.90
3756;DHT22;1893;52.526;13.360;2022-09-09T01:55:31;14.40;99.90
3756;DHT22;1893;52.526;13.360;2022-09-09T02:01:12;14.50;99.90
3756;DHT22;1893;52.526;13.360;2022-09-09T02:03:38;14.40;99.90
3756;DHT22;1893;52.526;13.360;2022-09-09T02:06:25;14.40;99.90
3756;DHT22;1893;52.526;13.360;2022-09-09T02:08:55;14.40;99.90
3756;DHT22;1893;52.526;13.360;2022-09-09T02:11:25;14.30;99.90
3756;DHT22;1893;52.526;13.360;2022-09-09T02:13:57;14.30;99.90
3756;DHT22;1893;52.526;13.360;2022-09-09T02:16:40;14.40;99.90
3756;DHT22;1893;52.526;13.360;2022-09-09T02:19:21;14.30;99.90
3756;DHT22;1893;52.526;13.360;2022-09-09T02:21:52;14.30;99.90
3756;DHT22;1893;52.526;13.360;2022-09-09T02:24:19;14.30;99.90
3756;DHT22;1893;52.526;13.360;2022-09-09T02:26:49;14.30;99.90
3756;DHT22;1893;52.526;13.360;2022-09-09T02:29:19;14.30;99.90
3756;DHT22;1893;52.526;13.360;2022-09-09T02:31:47;14.30;99.90
3756;DHT22;1893;52.526;13.360;2022-09-09T02:34:15;14.30;99.90
3756;DHT22;1893;52.526;13.360;2022-09-09T02:36:43;14.30;99.90
3756;DHT22;1893;52.526;13.360;2022-09-09T02:39:11;14.30;99.90
3756;DHT22;1893;52.526;13.360;2022-09-09T02:41:39;14.30;99.90
3756;DHT22;1893;52.526;13.360;2022-09-09T02:44:11;14.20;99.90
3756;DHT22;1893;52.526;13.360;2022-09-09T02:52:07;14.20;99.90
3756;DHT22;1893;52.526;13.360;2022-09-09T02:54:35;14.20;99.90
3756;DHT22;1893;52.526;13.360;2022-09-09T02:57:19;14.20;99.90
3756;DHT22;1893;52.526;13.360;2022-09-09T02:59:47;14.20;99.90
3756;DHT22;1893;52.526;13.360;2022-09-09T03:02:13;14.20;99.90
3756;DHT22;1893;52.526;13.360;2022-09-09T03:04:39;14.20;99.90
3756;DHT22;1893;52.526;13.360;2022-09-09T03:07:05;14.10;99.90
3756;DHT22;1893;52.526;13.360;2022-09-09T03:09:31;14.10;99.90
3756;DHT22;1893;52.526;13.360;2022-09-09T03:11:58;14.10;99.90
3756;DHT22;1893;52.526;13.360;2022-09-09T03:14:24;14.10;99.90
3756;DHT22;1893;52.526;13.360;2022-09-09T03:16:53;14.10;99.90
3756;DHT22;1893;52.526;13.360;2022-09-09T03:19:20;14.10;99.90
3756;DHT22;1893;52.526;13.360;2022-09-09T03:21:46;14.10;99.90
3756;DHT22;1893;52.526;13.360;2022-09-09T03:24:13;14.10;99.90
3756;DHT22;1893;52.526;13.360;2022-09-09T03:26:39;14.00;99.90
3756;DHT22;1893;52.526;13.360;2022-09-09T03:29:06;14.00;99.90
3756;DHT22;1893;52.526;13.360;2022-09-09T03:31:34;14.10;99.90
3756;DHT22;1893;52.526;13.360;2022-09-09T03:34:01;14.00;99.90
3756;DHT22;1893;52.526;13.360;2022-09-09T03:36:27;14.10;99.90
3756;DHT22;1893;52.526;13.360;2022-09-09T03:38:53;14.00;99.90
3756;DHT22;1893;52.526;13.360;2022-09-09T03:41:22;13.90;99.90
3756;DHT22;1893;52.526;13.360;2022-09-09T03:43:50;13.90;99.90
3756;DHT22;1893;52.526;13.360;2022-09-09T03:46:16;14.00;99.90
3756;DHT22;1893;52.526;13.360;2022-09-09T03:48:42;14.00;99.90
3756;DHT22;1893;52.526;13.360;2022-09-09T03:51:07;14.00;99.90
3756;DHT22;1893;52.526;13.360;2022-09-09T03:53:33;13.90;99.90
3756;DHT22;1893;52.526;13.360;2022-09-09T03:55:58;13.90;99.90
3756;DHT22;1893;52.526;13.360;2022-09-09T03:58:25;13.90;99.90
3756;DHT22;1893;52.526;13.360;2022-09-09T04:00:59;13.90;99.90
3756;DHT22;1893;52.526;13.360;2022-09-09T04:03:25;13.90;99.90
3756;DHT22;1893;52.526;13.360;2022-09-09T04:05:52;13.90;99.90
3756;DHT22;1893;52.526;13.360;2022-09-09T04:08:19;13.90;99.90
3756;DHT22;1893;52.526;13.360;2022-09-09T04:10:46;13.90;99.90
3756;DHT22;1893;52.526;13.360;2022-09-09T04:13:12;13.90;99.90
3756;DHT22;1893;52.526;13.360;2022-09-09T04:15:39;13.90;99.90
3756;DHT22;1893;52.526;13.360;2022-09-09T04:18:05;13.90;99.90
3756;DHT22;1893;52.526;13.360;2022-09-09T04:20:31;13.90;99.90
3756;DHT22;1893;52.526;13.360;2022-09-09T04:22:57;13.90;99.90
3756;DHT22;1893;52.526;13.360;2022-09-09T04:25:23;13.90;99.90
3756;DHT22;1893;52.526;13.360;2022-09-09T04:27:56;13.90;99.90
3756;DHT22;1893;52.526;13.360;2022-09-09T04:30:24;13.90;99.90
3756;DHT22;1893;52.526;13.360;2022-09-09T04:32:50;13.90;99.90
3756;DHT22;1893;52.526;13.360;2022-09-09T04:35:16;13.90;99.90
3756;DHT22;1893;52.526;13.360;2022-09-09T04:37:41;13.90;99.90
3756;DHT22;1893;52.526;13.360;2022-09-09T04:40:08;13.90;99.90
3756;DHT22;1893;52.526;13.360;2022-09-09T04:42:38;13.90;99.90
3756;DHT22;1893;52.526;13.360;2022-09-09T04:45:05;13.90;99.90
3756;DHT22;1893;52.526;13.360;2022-09-09T04:47:32;13.90;99.90
3756;DHT22;1893;52.526;13.360;2022-09-09T04:49:57;13.90;99.90
3756;DHT22;1893;52.526;13.360;2022-09-09T04:52:23;14.00;99.90
3756;DHT22;1893;52.526;13.360;2022-09-09T04:54:49;13.90;99.90
3756;DHT22;1893;52.526;13.360;2022-09-09T04:57:14;13.90;99.90
3756;DHT22;1893;52.526;13.360;2022-09-09T04:59:40;13.90;99.90
3756;DHT22;1893;52.526;13.360;2022-09-09T05:02:06;13.90;99.90
3756;DHT22;1893;52.526;13.360;2022-09-09T05:04:31;14.00;99.90
3756;DHT22;1893;52.526;13.360;2022-09-09T05:06:58;14.00;99.90
3756;DHT22;1893;52.526;13.360;2022-09-09T05:09:23;14.00;99.90
3756;DHT22;1893;52.526;13.360;2022-09-09T05:11:49;14.00;99.90
3756;DHT22;1893;52.526;13.360;2022-09-09T05:14:15;14.00;99.90
3756;DHT22;1893;52.526;13.360;2022-09-09T05:16:40;14.10;99.90
3756;DHT22;1893;52.526;13.360;2022-09-09T05:19:06;14.10;99.90
3756;DHT22;1893;52.526;13.360;2022-09-09T05:21:33;14.10;99.90
3756;DHT22;1893;52.526;13.360;2022-09-09T05:23:59;14.20;99.90
3756;DHT22;1893;52.526;13.360;2022-09-09T05:26:26;14.20;99.90
3756;DHT22;1893;52.526;13.360;2022-09-09T05:28:51;14.20;99.90
3756;DHT22;1893;52.526;13.360;2022-09-09T05:31:18;14.20;99.90
3756;DHT22;1893;52.526;13.360;2022-09-09T05:33:45;14.30;99.90
3756;DHT22;1893;52.526;13.360;2022-09-09T05:36:16;14.40;99.90
3756;DHT22;1893;52.526;13.360;2022-09-09T05:38:42;14.40;99.90
3756;DHT22;1893;52.526;13.360;2022-09-09T05:41:09;14.50;99.90
3756;DHT22;1893;52.526;13.360;2022-09-09T05:43:37;14.60;99.90
3756;DHT22;1893;52.526;13.360;2022-09-09T05:46:08;14.60;99.90
3756;DHT22;1893;52.526;13.360;2022-09-09T05:48:37;14.60;99.90
3756;DHT22;1893;52.526;13.360;2022-09-09T05:51:04;14.60;99.90
3756;DHT22;1893;52.526;13.360;2022-09-09T05:53:30;14.60;99.90
3756;DHT22;1893;52.526;13.360;2022-09-09T05:56:10;14.70;99.90
3756;DHT22;1893;52.526;13.360;2022-09-09T05:58:36;14.70;99.90
3756;DHT22;1893;52.526;13.360;2022-09-09T06:03:37;14.90;99.90
3756;DHT22;1893;52.526;13.360;2022-09-09T06:06:05;14.90;99.90
3756;DHT22;1893;52.526;13.360;2022-09-09T06:08:33;15.00;99.90
3756;DHT22;1893;52.526;13.360;2022-09-09T06:13:30;15.10;99.90
3756;DHT22;1893;52.526;13.360;2022-09-09T06:15:55;15.10;99.90
3756;DHT22;1893;52.526;13.360;2022-09-09T06:18:21;15.20;99.90
3756;DHT22;1893;52.526;13.360;2022-09-09T06:21:01;15.20;99.90
3756;DHT22;1893;52.526;13.360;2022-09-09T06:23:30;15.10;99.90
3756;DHT22;1893;52.526;13.360;2022-09-09T06:26:06;15.20;99.90
3756;DHT22;1893;52.526;13.360;2022-09-09T06:28:34;15.40;99.90
3756;DHT22;1893;52.526;13.360;2022-09-09T06:31:00;15.50;99.90
3756;DHT22;1893;52.526;13.360;2022-09-09T06:33:26;15.50;99.90
3756;DHT22;1893;52.526;13.360;2022-09-09T06:35:55;15.60;99.90
3756;DHT22;1893;52.526;13.360;2022-09-09T06:38:22;15.70;99.90
3756;DHT22;1893;52.526;13.360;2022-09-09T06:40:55;15.80;99.90
3756;DHT22;1893;52.526;13.360;2022-09-09T06:43:22;15.80;99.90
3756;DHT22;1893;52.526;13.360;2022-09-09T06:45:56;15.80;99.90
3756;DHT22;1893;52.526;13.360;2022-09-09T06:48:21;15.80;99.90
3756;DHT22;1893;52.526;13.360;2022-09-09T06:50:47;15.70;99.90
3756;DHT22;1893;52.526;13.360;2022-09-09T06:53:16;15.70;99.90
3756;DHT22;1893;52.526;13.360;2022-09-09T06:55:45;15.70;99.90
3756;DHT22;1893;52.526;13.360;2022-09-09T06:58:10;16.10;99.90
3756;DHT22;1893;52.526;13.360;2022-09-09T07:00:36;16.70;99.90
3756;DHT22;1893;52.526;13.360;2022-09-09T07:03:05;17.00;99.90
3756;DHT22;1893;52.526;13.360;2022-09-09T07:05:31;17.30;99.90
3756;DHT22;1893;52.526;13.360;2022-09-09T07:07:57;17.40;99.90
3756;DHT22;1893;52.526;13.360;2022-09-09T07:10:23;17.80;99.90
3756;DHT22;1893;52.526;13.360;2022-09-09T07:12:52;18.00;99.90
3756;DHT22;1893;52.526;13.360;2022-09-09T07:15:18;17.90;99.90
3756;DHT22;1893;52.526;13.360;2022-09-09T07:17:44;18.00;99.90
3756;DHT22;1893;52.526;13.360;2022-09-09T07:20:11;17.90;99.90
3756;DHT22;1893;52.526;13.360;2022-09-09T07:22:37;17.90;99.90
3756;DHT22;1893;52.526;13.360;2022-09-09T07:25:03;18.10;99.90
3756;DHT22;1893;52.526;13.360;2022-09-09T07:27:29;18.10;99.90
3756;DHT22;1893;52.526;13.360;2022-09-09T07:29:55;18.20;99.90
3756;DHT22;1893;52.526;13.360;2022-09-09T07:32:20;18.30;99.90
3756;DHT22;1893;52.526;13.360;2022-09-09T07:34:46;18.40;99.90
3756;DHT22;1893;52.526;13.360;2022-09-09T07:37:12;18.50;99.90
3756;DHT22;1893;52.526;13.360;2022-09-09T07:39:38;18.80;99.90
3756;DHT22;1893;52.526;13.360;2022-09-09T07:42:04;18.80;1.00
3756;DHT22;1893;52.526;13.360;2022-09-09T07:44:30;19.10;1.00
3756;DHT22;1893;52.526;13.360;2022-09-09T07:47:00;19.10;1.00
3756;DHT22;1893;52.526;13.360;2022-09-09T07:49:25;19.00;1.00
3756;DHT22;1893;52.526;13.360;2022-09-09T07:51:51;19.20;1.00
3756;DHT22;1893;52.526;13.360;2022-09-09T07:54:18;19.00;1.00
3756;DHT22;1893;52.526;13.360;2022-09-09T07:56:49;18.80;1.00
3756;DHT22;1893;52.526;13.360;2022-09-09T07:59:15;18.70;1.00
3756;DHT22;1893;52.526;13.360;2022-09-09T08:01:50;18.90;98.20
3756;DHT22;1893;52.526;13.360;2022-09-09T08:04:20;18.90;37.20
3756;DHT22;1893;52.526;13.360;2022-09-09T08:06:57;19.20;3.10
3756;DHT22;1893;52.526;13.360;2022-09-09T08:09:24;19.40;1.00
3756;DHT22;1893;52.526;13.360;2022-09-09T08:11:55;19.70;1.00
3756;DHT22;1893;52.526;13.360;2022-09-09T08:14:22;20.00;1.00
3756;DHT22;1893;52.526;13.360;2022-09-09T08:16:49;20.20;1.00
3756;DHT22;1893;52.526;13.360;2022-09-09T08:19:15;20.50;99.90
3756;DHT22;1893;52.526;13.360;2022-09-09T08:21:42;20.40;99.90
3756;DHT22;1893;52.526;13.360;2022-09-09T08:24:09;20.30;1.00
3756;DHT22;1893;52.526;13.360;2022-09-09T08:26:42;20.30;99.90
3756;DHT22;1893;52.526;13.360;2022-09-09T08:29:09;20.10;1.00
3756;DHT22;1893;52.526;13.360;2022-09-09T08:31:38;19.80;1.00
3756;DHT22;1893;52.526;13.360;2022-09-09T08:34:04;19.50;1.00
3756;DHT22;1893;52.526;13.360;2022-09-09T08:36:32;19.30;1.00
3756;DHT22;1893;52.526;13.360;2022-09-09T08:38:59;19.40;1.00
3756;DHT22;1893;52.526;13.360;2022-09-09T08:42:09;19.60;1.00
3756;DHT22;1893;52.526;13.360;2022-09-09T08:58:22;19.10;1.00
3756;DHT22;1893;52.526;13.360;2022-09-09T09:09:30;19.10;1.00
3756;DHT22;1893;52.526;13.360;2022-09-09T09:12:00;19.20;1.00
3756;DHT22;1893;52.526;13.360;2022-09-09T09:14:31;19.10;1.00
3756;DHT22;1893;52.526;13.360;2022-09-09T09:17:20;19.30;1.00
3756;DHT22;1893;52.526;13.360;2022-09-09T09:19:47;19.50;1.00
3756;DHT22;1893;52.526;13.360;2022-09-09T09:22:22;19.70;1.00
3756;DHT22;1893;52.526;13.360;2022-09-09T09:25:20;20.00;1.00
3756;DHT22;1893;52.526;13.360;2022-09-09T09:28:18;20.10;1.00
3756;DHT22;1893;52.526;13.360;2022-09-09T09:30:55;20.10;1.00
3756;DHT22;1893;52.526;13.360;2022-09-09T09:36:08;21.00;99.90
3756;DHT22;1893;52.526;13.360;2022-09-09T09:38:35;21.10;99.90
3756;DHT22;1893;52.526;13.360;2022-09-09T09:41:01;21.30;99.90
3756;DHT22;1893;52.526;13.360;2022-09-09T09:43:32;21.50;76.20
3756;DHT22;1893;52.526;13.360;2022-09-09T09:45:58;21.70;1.00
3756;DHT22;1893;52.526;13.360;2022-09-09T09:48:26;21.80;99.90
3756;DHT22;1893;52.526;13.360;2022-09-09T09:50:58;21.80;1.00
3756;DHT22;1893;52.526;13.360;2022-09-09T09:53:33;21.80;1.00
3756;DHT22;1893;52.526;13.360;2022-09-09T09:56:01;22.10;1.00
3756;DHT22;1893;52.526;13.360;2022-09-09T09:58:30;22.30;1.00
3756;DHT22;1893;52.526;13.360;2022-09-09T10:00:57;22.10;99.90
3756;DHT22;1893;52.526;13.360;2022-09-09T10:03:26;22.50;99.90
3756;DHT22;1893;52.526;13.360;2022-09-09T10:05:52;22.70;29.10
3756;DHT22;1893;52.526;13.360;2022-09-09T10:08:18;23.00;1.00
3756;DHT22;1893;52.526;13.360;2022-09-09T10:13:27;23.40;99.90
3756;DHT22;1893;52.526;13.360;2022-09-09T10:16:22;23.40;99.90
3756;DHT22;1893;52.526;13.360;2022-09-09T10:19:17;24.30;1.00
3756;DHT22;1893;52.526;13.360;2022-09-09T10:21:58;24.60;1.00
3756;DHT22;1893;52.526;13.360;2022-09-09T10:30:18;26.70;1.00
3756;DHT22;1893;52.526;13.360;2022-09-09T10:38:21;25.10;99.90
3756;DHT22;1893;52.526;13.360;2022-09-09T10:41:06;24.90;1.00
3756;DHT22;1893;52.526;13.360;2022-09-09T10:44:01;25.40;1.00
3756;DHT22;1893;52.526;13.360;2022-09-09T10:49:51;28.00;99.90
3756;DHT22;1893;52.526;13.360;2022-09-09T10:52:40;27.80;99.90
3756;DHT22;1893;52.526;13.360;2022-09-09T10:57:51;26.40;99.90
3756;DHT22;1893;52.526;13.360;2022-09-09T11:00:23;26.70;99.90
3756;DHT22;1893;52.526;13.360;2022-09-09T11:03:03;26.50;99.90
3756;DHT22;1893;52.526;13.360;2022-09-09T11:05:43;26.90;99.90
3756;DHT22;1893;52.526;13.360;2022-09-09T11:08:16;27.80;99.90
3756;DHT22;1893;52.526;13.360;2022-09-09T11:13:43;27.80;99.90
3756;DHT22;1893;52.526;13.360;2022-09-09T11:19:09;27.20;99.90
3756;DHT22;1893;52.526;13.360;2022-09-09T11:21:44;26.70;99.90
3756;DHT22;1893;52.526;13.360;2022-09-09T11:24:23;26.50;99.90
3756;DHT22;1893;52.526;13.360;2022-09-09T11:27:06;25.10;99.90
3756;DHT22;1893;52.526;13.360;2022-09-09T11:30:00;25.40;99.90
3756;DHT22;1893;52.526;13.360;2022-09-09T11:38:56;23.70;1.00
3756;DHT22;1893;52.526;13.360;2022-09-09T11:41:34;23.90;1.00
3756;DHT22;1893;52.526;13.360;2022-09-09T11:44:10;24.30;1.00
3756;DHT22;1893;52.526;13.360;2022-09-09T11:46:38;24.40;1.00
3756;DHT22;1893;52.526;13.360;2022-09-09T11:49:05;24.50;1.00
3756;DHT22;1893;52.526;13.360;2022-09-09T11:51:33;24.60;1.00
3756;DHT22;1893;52.526;13.360;2022-09-09T11:54:28;25.10;1.00
3756;DHT22;1893;52.526;13.360;2022-09-09T11:56:47;25.40;99.90
3756;DHT22;1893;52.526;13.360;2022-09-09T11:59:31;24.70;99.90
3756;DHT22;1893;52.526;13.360;2022-09-09T12:02:03;24.50;99.90
3756;DHT22;1893;52.526;13.360;2022-09-09T12:04:54;24.60;1.00
3756;DHT22;1893;52.526;13.360;2022-09-09T12:07:30;24.10;1.00
3756;DHT22;1893;52.526;13.360;2022-09-09T12:12:44;24.10;1.00
3756;DHT22;1893;52.526;13.360;2022-09-09T12:17:52;24.50;1.00
3756;DHT22;1893;52.526;13.360;2022-09-09T12:20:34;24.30;1.00
3756;DHT22;1893;52.526;13.360;2022-09-09T12:23:18;24.60;1.00
3756;DHT22;1893;52.526;13.360;2022-09-09T12:26:18;24.50;1.00
3756;DHT22;1893;52.526;13.360;2022-09-09T12:29:13;24.10;1.00
3756;DHT22;1893;52.526;13.360;2022-09-09T12:39:45;23.30;1.00
3756;DHT22;1893;52.526;13.360;2022-09-09T12:42:20;23.10;1.00
3756;DHT22;1893;52.526;13.360;2022-09-09T12:44:56;22.90;1.00
3756;DHT22;1893;52.526;13.360;2022-09-09T12:47:32;22.90;1.00
3756;DHT22;1893;52.526;13.360;2022-09-09T12:50:01;22.90;1.00
3756;DHT22;1893;52.526;13.360;2022-09-09T12:52:32;22.90;1.00
3756;DHT22;1893;52.526;13.360;2022-09-09T12:55:02;22.80;1.00
3756;DHT22;1893;52.526;13.360;2022-09-09T12:57:34;22.80;1.00
3756;DHT22;1893;52.526;13.360;2022-09-09T13:00:14;22.80;1.00
3756;DHT22;1893;52.526;13.360;2022-09-09T13:02:58;22.90;1.00
3756;DHT22;1893;52.526;13.360;2022-09-09T13:05:35;22.80;1.00
3756;DHT22;1893;52.526;13.360;2022-09-09T13:08:11;22.70;1.00
3756;DHT22;1893;52.526;13.360;2022-09-09T13:10:47;22.60;1.00
3756;DHT22;1893;52.526;13.360;2022-09-09T13:13:21;22.50;1.00
3756;DHT22;1893;52.526;13.360;2022-09-09T13:15:50;22.40;1.00
3756;DHT22;1893;52.526;13.360;2022-09-09T13:18:17;22.40;99.90
3756;DHT22;1893;52.526;13.360;2022-09-09T13:20:48;22.40;99.90
3756;DHT22;1893;52.526;13.360;2022-09-09T13:23:15;22.40;1.00
3756;DHT22;1893;52.526;13.360;2022-09-09T13:26:02;22.40;1.00
3756;DHT22;1893;52.526;13.360;2022-09-09T13:28:30;22.30;1.00
3756;DHT22;1893;52.526;13.360;2022-09-09T13:31:03;22.30;1.00
3756;DHT22;1893;52.526;13.360;2022-09-09T13:33:35;22.30;1.00
3756;DHT22;1893;52.526;13.360;2022-09-09T13:36:07;22.40;1.00
3756;DHT22;1893;52.526;13.360;2022-09-09T13:38:54;22.40;1.00
3756;DHT22;1893;52.526;13.360;2022-09-09T13:41:22;22.30;1.00
3756;DHT22;1893;52.526;13.360;2022-09-09T13:43:49;22.50;1.00
3756;DHT22;1893;52.526;13.360;2022-09-09T13:48:58;22.60;1.00
3756;DHT22;1893;52.526;13.360;2022-09-09T13:51:38;22.70;1.00
3756;DHT22;1893;52.526;13.360;2022-09-09T13:54:10;22.90;1.00
3756;DHT22;1893;52.526;13.360;2022-09-09T13:56:37;23.10;1.00
3756;DHT22;1893;52.526;13.360;2022-09-09T13:59:05;23.20;1.00
3756;DHT22;1893;52.526;13.360;2022-09-09T14:01:31;23.40;1.00
3756;DHT22;1893;52.526;13.360;2022-09-09T14:04:00;23.40;1.00
3756;DHT22;1893;52.526;13.360;2022-09-09T14:06:26;23.30;1.00
3756;DHT22;1893;52.526;13.360;2022-09-09T14:08:53;23.10;1.00
3756;DHT22;1893;52.526;13.360;2022-09-09T14:11:20;23.10;1.00
3756;DHT22;1893;52.526;13.360;2022-09-09T14:13:47;23.10;1.00
3756;DHT22;1893;52.526;13.360;2022-09-09T14:16:12;23.30;1.00
3756;DHT22;1893;52.526;13.360;2022-09-09T14:18:38;23.30;1.00
3756;DHT22;1893;52.526;13.360;2022-09-09T14:21:04;23.40;1.00
3756;DHT22;1893;52.526;13.360;2022-09-09T14:23:30;23.50;1.00
3756;DHT22;1893;52.526;13.360;2022-09-09T14:25:56;23.40;1.00
3756;DHT22;1893;52.526;13.360;2022-09-09T14:28:22;23.20;1.00
3756;DHT22;1893;52.526;13.360;2022-09-09T14:30:47;23.10;1.00
3756;DHT22;1893;52.526;13.360;2022-09-09T14:33:15;23.10;1.00
3756;DHT22;1893;52.526;13.360;2022-09-09T14:35:42;23.20;1.00
3756;DHT22;1893;52.526;13.360;2022-09-09T14:38:08;23.30;1.00
3756;DHT22;1893;52.526;13.360;2022-09-09T14:40:35;23.40;1.00
3756;DHT22;1893;52.526;13.360;2022-09-09T14:43:02;23.70;1.00
3756;DHT22;1893;52.526;13.360;2022-09-09T14:45:28;23.60;99.90
3756;DHT22;1893;52.526;13.360;2022-09-09T14:47:54;23.20;99.90
3756;DHT22;1893;52.526;13.360;2022-09-09T14:50:20;22.90;99.90
3756;DHT22;1893;52.526;13.360;2022-09-09T14:52:46;22.80;1.00
3756;DHT22;1893;52.526;13.360;2022-09-09T14:55:12;22.70;1.00
3756;DHT22;1893;52.526;13.360;2022-09-09T14:57:38;22.70;1.00
3756;DHT22;1893;52.526;13.360;2022-09-09T15:00:06;22.60;1.00
3756;DHT22;1893;52.526;13.360;2022-09-09T15:02:32;22.60;1.00
3756;DHT22;1893;52.526;13.360;2022-09-09T15:04:58;22.50;1.00
3756;DHT22;1893;52.526;13.360;2022-09-09T15:07:24;22.40;1.00
3756;DHT22;1893;52.526;13.360;2022-09-09T15:09:50;22.40;1.00
3756;DHT22;1893;52.526;13.360;2022-09-09T15:12:16;22.40;99.90
3756;DHT22;1893;52.526;13.360;2022-09-09T15:14:44;22.30;99.90
3756;DHT22;1893;52.526;13.360;2022-09-09T15:17:10;22.40;99.90
3756;DHT22;1893;52.526;13.360;2022-09-09T15:19:36;22.50;99.90
3756;DHT22;1893;52.526;13.360;2022-09-09T15:22:02;22.80;1.00
3756;DHT22;1893;52.526;13.360;2022-09-09T15:24:28;22.90;1.00
3756;DHT22;1893;52.526;13.360;2022-09-09T15:26:54;22.80;1.00
3756;DHT22;1893;52.526;13.360;2022-09-09T15:29:19;22.60;1.00
3756;DHT22;1893;52.526;13.360;2022-09-09T15:31:45;22.60;1.00
3756;DHT22;1893;52.526;13.360;2022-09-09T15:34:11;22.50;1.00
3756;DHT22;1893;52.526;13.360;2022-09-09T15:36:41;22.60;1.00
3756;DHT22;1893;52.526;13.360;2022-09-09T15:39:12;22.60;1.00
3756;DHT22;1893;52.526;13.360;2022-09-09T15:41:41;22.60;1.00
3756;DHT22;1893;52.526;13.360;2022-09-09T15:44:06;22.70;1.00
3756;DHT22;1893;52.526;13.360;2022-09-09T15:49:21;22.80;1.00
3756;DHT22;1893;52.526;13.360;2022-09-09T15:51:58;22.60;1.00
3756;DHT22;1893;52.526;13.360;2022-09-09T15:54:25;22.40;1.00
3756;DHT22;1893;52.526;13.360;2022-09-09T15:56:53;22.30;1.00
3756;DHT22;1893;52.526;13.360;2022-09-09T15:59:24;22.20;1.00
3756;DHT22;1893;52.526;13.360;2022-09-09T16:01:50;22.00;1.00
3756;DHT22;1893;52.526;13.360;2022-09-09T16:04:17;21.90;1.00
3756;DHT22;1893;52.526;13.360;2022-09-09T16:06:49;21.80;99.90
3756;DHT22;1893;52.526;13.360;2022-09-09T16:09:15;21.80;99.90
3756;DHT22;1893;52.526;13.360;2022-09-09T16:11:40;21.70;1.00
3756;DHT22;1893;52.526;13.360;2022-09-09T16:14:06;21.50;99.90
3756;DHT22;1893;52.526;13.360;2022-09-09T16:16:32;21.50;99.90
3756;DHT22;1893;52.526;13.360;2022-09-09T16:19:00;21.50;99.90
3756;DHT22;1893;52.526;13.360;2022-09-09T16:21:30;21.50;61.70
3756;DHT22;1893;52.526;13.360;2022-09-09T16:23:58;21.60;1.00
3756;DHT22;1893;52.526;13.360;2022-09-09T16:26:28;21.50;99.90
3756;DHT22;1893;52.526;13.360;2022-09-09T16:28:55;21.60;99.90
3756;DHT22;1893;52.526;13.360;2022-09-09T16:31:22;21.70;99.90
3756;DHT22;1893;52.526;13.360;2022-09-09T16:33:48;21.60;99.90
3756;DHT22;1893;52.526;13.360;2022-09-09T16:36:17;21.60;99.90
3756;DHT22;1893;52.526;13.360;2022-09-09T16:38:43;21.50;99.90
3756;DHT22;1893;52.526;13.360;2022-09-09T16:41:10;21.50;99.90
3756;DHT22;1893;52.526;13.360;2022-09-09T16:43:37;21.50;99.90
3756;DHT22;1893;52.526;13.360;2022-09-09T16:46:14;21.40;99.90
3756;DHT22;1893;52.526;13.360;2022-09-09T16:48:41;21.40;99.90
3756;DHT22;1893;52.526;13.360;2022-09-09T16:51:11;21.30;1.00
3756;DHT22;1893;52.526;13.360;2022-09-09T16:53:36;21.30;1.00
3756;DHT22;1893;52.526;13.360;2022-09-09T16:56:11;21.30;1.00
3756;DHT22;1893;52.526;13.360;2022-09-09T16:58:36;21.30;1.00
3756;DHT22;1893;52.526;13.360;2022-09-09T17:01:03;21.30;1.00
3756;DHT22;1893;52.526;13.360;2022-09-09T17:03:29;21.40;1.00
3756;DHT22;1893;52.526;13.360;2022-09-09T17:05:56;21.30;1.00
3756;DHT22;1893;52.526;13.360;2022-09-09T17:08:26;21.20;1.00
3756;DHT22;1893;52.526;13.360;2022-09-09T17:10:51;21.20;1.00
3756;DHT22;1893;52.526;13.360;2022-09-09T17:13:17;21.10;99.90
3756;DHT22;1893;52.526;13.360;2022-09-09T17:15:45;21.00;1.00
3756;DHT22;1893;52.526;13.360;2022-09-09T17:18:12;21.00;99.90
3756;DHT22;1893;52.526;13.360;2022-09-09T17:20:39;21.00;99.90
3756;DHT22;1893;52.526;13.360;2022-09-09T17:23:06;21.00;99.90
3756;DHT22;1893;52.526;13.360;2022-09-09T17:25:32;21.00;99.90
3756;DHT22;1893;52.526;13.360;2022-09-09T17:27:58;20.90;99.90
3756;DHT22;1893;52.526;13.360;2022-09-09T17:30:24;20.90;99.90
3756;DHT22;1893;52.526;13.360;2022-09-09T17:32:49;20.90;1.00
3756;DHT22;1893;52.526;13.360;2022-09-09T17:35:15;20.80;1.00
3756;DHT22;1893;52.526;13.360;2022-09-09T17:37:40;20.70;1.00
3756;DHT22;1893;52.526;13.360;2022-09-09T17:40:07;20.60;1.00
3756;DHT22;1893;52.526;13.360;2022-09-09T17:42:33;20.50;99.90
3756;DHT22;1893;52.526;13.360;2022-09-09T17:44:59;20.50;1.00
3756;DHT22;1893;52.526;13.360;2022-09-09T17:47:25;20.40;99.90
3756;DHT22;1893;52.526;13.360;2022-09-09T17:49:51;20.30;1.00
3756;DHT22;1893;52.526;13.360;2022-09-09T17:52:16;20.20;1.00
3756;DHT22;1893;52.526;13.360;2022-09-09T17:54:41;20.10;99.90
3756;DHT22;1893;52.526;13.360;2022-09-09T17:57:07;20.00;1.00
3756;DHT22;1893;52.526;13.360;2022-09-09T17:59:32;20.00;1.00
3756;DHT22;1893;52.526;13.360;2022-09-09T18:01:58;20.00;1.00
3756;DHT22;1893;52.526;13.360;2022-09-09T18:04:23;19.90;32.50
3756;DHT22;1893;52.526;13.360;2022-09-09T18:06:50;19.80;99.90